sensor_id;sensor_type;location;lat;lon;timestamp;pressure;altitude;pressure_sealevel;temperature;humidity
5380;BME280;2713;42.680;23.310;2023-03-03T00:01:13;95128.94;;;5.56;83.47
5380;BME280;2713;42.680;23.310;2023-03-03T00:03:40;95118.03;;;5.45;84.33
5380;BME280;2713;42.680;23.310;2023-03-03T00:06:09;95125.13;;;5.60;84.52
5380;BME280;2713;42.680;23.310;2023-03-03T00:08:36;95121.31;;;5.65;83.12
5380;BME280;2713;42.680;23.310;2023-03-03T00:11:03;95119.59;;;5.55;84.48
5380;BME280;2713;42.680;23.310;2023-03-03T00:13:33;95116.59;;;5.95;83.19
5380;BME280;2713;42.680;23.310;2023-03-03T00:16:16;95113.19;;;6.13;81.96
5380;BME280;2713;42.680;23.310;2023-03-03T00:18:47;95115.38;;;6.07;81.34
5380;BME280;2713;42.680;23.310;2023-03-03T00:21:26;95117.22;;;5.80;82.72
5380;BME280;2713;42.680;23.310;2023-03-03T00:24:07;95110.53;;;5.87;82.78
5380;BME280;2713;42.680;23.310;2023-03-03T00:26:38;95115.59;;;6.14;81.38
5380;BME280;2713;42.680;23.310;2023-03-03T00:29:25;95100.22;;;5.51;83.51
5380;BME280;2713;42.680;23.310;2023-03-03T00:31:54;95105.66;;;5.66;83.70
5380;BME280;2713;42.680;23.310;2023-03-03T00:34:26;95112.38;;;5.77;83.19
5380;BME280;2713;42.680;23.310;2023-03-03T00:36:56;95110.47;;;5.79;83.97
5380;BME280;2713;42.680;23.310;2023-03-03T00:39:27;95100.72;;;5.73;83.54
5380;BME280;2713;42.680;23.310;2023-03-03T00:41:55;95103.09;;;5.66;84.25
5380;BME280;2713;42.680;23.310;2023-03-03T00:44:38;95098.22;;;5.45;84.90
5380;BME280;2713;42.680;23.310;2023-03-03T00:47:24;95097.19;;;5.38;85.68
5380;BME280;2713;42.680;23.310;2023-03-03T00:49:52;95088.59;;;5.30;85.71
5380;BME280;2713;42.680;23.310;2023-03-03T00:52:26;95081.00;;;5.28;86.42
5380;BME280;2713;42.680;23.310;2023-03-03T00:54:54;95084.19;;;5.40;85.61
5380;BME280;2713;42.680;23.310;2023-03-03T00:57:21;95084.09;;;5.49;85.11
5380;BME280;2713;42.680;23.310;2023-03-03T00:59:49;95080.19;;;5.45;85.02
5380;BME280;2713;42.680;23.310;2023-03-03T01:02:16;95065.41;;;5.47;85.04
5380;BME280;2713;42.680;23.310;2023-03-03T01:04:49;95059.25;;;5.48;85.36
5380;BME280;2713;42.680;23.310;2023-03-03T01:07:16;95061.19;;;5.64;84.84
5380;BME280;2713;42.680;23.310;2023-03-03T01:09:43;95051.28;;;5.77;83.59
5380;BME280;2713;42.680;23.310;2023-03-03T01:12:10;95037.69;;;5.67;82.96
5380;BME280;2713;42.680;23.310;2023-03-03T01:14:37;95057.88;;;5.72;83.24
5380;BME280;2713;42.680;23.310;2023-03-03T01:17:04;95065.09;;;5.68;83.90
5380;BME280;2713;42.680;23.310;2023-03-03T01:19:31;95058.44;;;5.66;84.20
5380;BME280;2713;42.680;23.310;2023-03-03T01:21:59;95061.13;;;5.99;83.23
5380;BME280;2713;42.680;23.310;2023-03-03T01:24:26;95069.66;;;5.92;83.02
5380;BME280;2713;42.680;23.310;2023-03-03T01:26:53;95061.94;;;5.82;83.69
5380;BME280;2713;42.680;23.310;2023-03-03T01:29:21;95063.22;;;5.78;83.42
5380;BME280;2713;42.680;23.310;2023-03-03T01:31:48;95053.16;;;5.49;85.26
5380;BME280;2713;42.680;23.310;2023-03-03T01:34:15;95058.88;;;5.79;83.93
5380;BME280;2713;42.680;23.310;2023-03-03T01:36:42;95061.50;;;5.43;84.80
5380;BME280;2713;42.680;23.310;2023-03-03T01:39:10;95057.41;;;5.58;85.13
5380;BME280;2713;42.680;23.310;2023-03-03T01:41:38;95057.72;;;5.38;85.37
5380;BME280;2713;42.680;23.310;2023-03-03T01:44:08;95059.13;;;5.50;85.25
5380;BME280;2713;42.680;23.310;2023-03-03T01:46:47;95050.00;;;5.38;85.46
5380;BME280;2713;42.680;23.310;2023-03-03T01:49:18;95057.97;;;5.44;85.31
5380;BME280;2713;42.680;23.310;2023-03-03T01:51:50;95051.59;;;5.21;86.19
5380;BME280;2713;42.680;23.310;2023-03-03T01:54:24;95049.41;;;5.26;86.58
5380;BME280;2713;42.680;23.310;2023-03-03T01:56:55;95051.03;;;5.45;86.04
5380;BME280;2713;42.680;23.310;2023-03-03T01:59:26;95045.72;;;5.46;85.14
5380;BME280;2713;42.680;23.310;2023-03-03T02:01:54;95046.38;;;5.48;85.59
5380;BME280;2713;42.680;23.310;2023-03-03T02:04:21;95046.16;;;5.42;85.51
5380;BME280;2713;42.680;23.310;2023-03-03T02:06:51;95021.28;;;5.15;86.71
5380;BME280;2713;42.680;23.310;2023-03-03T02:09:26;95046.97;;;5.42;85.73
5380;BME280;2713;42.680;23.310;2023-03-03T02:11:58;95045.59;;;5.48;85.09
5380;BME280;2713;42.680;23.310;2023-03-03T02:14:26;95051.69;;;5.47;84.64
5380;BME280;2713;42.680;23.310;2023-03-03T02:16:53;95045.72;;;5.29;85.55
5380;BME280;2713;42.680;23.310;2023-03-03T02:19:27;95039.53;;;5.57;84.89
5380;BME280;2713;42.680;23.310;2023-03-03T02:21:58;95032.97;;;5.45;84.69
5380;BME280;2713;42.680;23.310;2023-03-03T02:24:32;95050.22;;;5.44;84.73
5380;BME280;2713;42.680;23.310;2023-03-03T02:27:01;95048.53;;;5.35;85.96
5380;BME280;2713;42.680;23.310;2023-03-03T02:29:29;95042.63;;;5.25;86.09
5380;BME280;2713;42.680;23.310;2023-03-03T02:34:48;95051.47;;;5.23;85.71
5380;BME280;2713;42.680;23.310;2023-03-03T02:37:16;95043.75;;;5.40;84.77
5380;BME280;2713;42.680;23.310;2023-03-03T02:39:43;95051.59;;;5.56;84.31
5380;BME280;2713;42.680;23.310;2023-03-03T02:42:16;95049.69;;;5.58;84.67
5380;BME280;2713;42.680;23.310;2023-03-03T02:44:50;95042.25;;;5.55;85.08
5380;BME280;2713;42.680;23.310;2023-03-03T02:47:18;95043.91;;;5.82;83.25
5380;BME280;2713;42.680;23.310;2023-03-03T02:49:45;95047.25;;;5.75;82.55
5380;BME280;2713;42.680;23.310;2023-03-03T02:52:12;95044.97;;;5.72;82.95
5380;BME280;2713;42.680;23.310;2023-03-03T02:54:44;95047.19;;;5.67;83.17
5380;BME280;2713;42.680;23.310;2023-03-03T02:57:13;95053.25;;;5.57;83.80
5380;BME280;2713;42.680;23.310;2023-03-03T02:59:40;95041.94;;;5.58;83.58
5380;BME280;2713;42.680;23.310;2023-03-03T03:02:12;95039.03;;;5.53;83.81
5380;BME280;2713;42.680;23.310;2023-03-03T03:04:40;95042.84;;;5.49;84.46
5380;BME280;2713;42.680;23.310;2023-03-03T03:07:09;95031.94;;;5.55;83.86
5380;BME280;2713;42.680;23.310;2023-03-03T03:09:37;95033.88;;;5.36;84.67
5380;BME280;2713;42.680;23.310;2023-03-03T03:12:04;95040.88;;;5.43;84.54
5380;BME280;2713;42.680;23.310;2023-03-03T03:14:34;95037.16;;;5.63;84.51
5380;BME280;2713;42.680;23.310;2023-03-03T03:17:01;95037.03;;;5.47;84.51
5380;BME280;2713;42.680;23.310;2023-03-03T03:19:29;95035.13;;;5.32;85.54
5380;BME280;2713;42.680;23.310;2023-03-03T03:21:59;95038.38;;;5.34;85.52
5380;BME280;2713;42.680;23.310;2023-03-03T03:24:27;95033.28;;;5.24;85.75
5380;BME280;2713;42.680;23.310;2023-03-03T03:27:00;95035.41;;;5.29;85.92
5380;BME280;2713;42.680;23.310;2023-03-03T03:29:27;95031.97;;;5.20;86.02
5380;BME280;2713;42.680;23.310;2023-03-03T03:31:55;95027.16;;;5.07;87.04
5380;BME280;2713;42.680;23.310;2023-03-03T03:34:22;95031.00;;;5.21;87.18
5380;BME280;2713;42.680;23.310;2023-03-03T03:36:50;95029.84;;;5.16;86.45
5380;BME280;2713;42.680;23.310;2023-03-03T03:39:18;95027.84;;;5.27;86.72
5380;BME280;2713;42.680;23.310;2023-03-03T03:41:47;95017.75;;;5.34;86.72
5380;BME280;2713;42.680;23.310;2023-03-03T03:44:14;95022.31;;;5.40;86.76
5380;BME280;2713;42.680;23.310;2023-03-03T03:46:41;95015.00;;;5.53;86.48
5380;BME280;2713;42.680;23.310;2023-03-03T03:49:10;95011.72;;;5.43;86.77
5380;BME280;2713;42.680;23.310;2023-03-03T03:51:38;95014.50;;;5.49;86.24
5380;BME280;2713;42.680;23.310;2023-03-03T03:54:07;95012.94;;;5.56;87.06
5380;BME280;2713;42.680;23.310;2023-03-03T03:56:35;94985.31;;;5.05;87.12
5380;BME280;2713;42.680;23.310;2023-03-03T03:59:05;95004.56;;;5.54;87.61
5380;BME280;2713;42.680;23.310;2023-03-03T04:01:32;95003.34;;;5.23;87.42
5380;BME280;2713;42.680;23.310;2023-03-03T04:03:59;95005.53;;;5.36;88.25
5380;BME280;2713;42.680;23.310;2023-03-03T04:06:27;95012.34;;;5.62;86.96
5380;BME280;2713;42.680;23.310;2023-03-03T04:08:55;95012.31;;;5.37;87.59
5380;BME280;2713;42.680;23.310;2023-03-03T04:11:22;94998.47;;;5.20;88.33
5380;BME280;2713;42.680;23.310;2023-03-03T04:13:49;95007.28;;;5.53;87.84
5380;BME280;2713;42.680;23.310;2023-03-03T04:16:16;95010.88;;;5.60;87.31
5380;BME280;2713;42.680;23.310;2023-03-03T04:18:44;95005.84;;;5.58;87.17
5380;BME280;2713;42.680;23.310;2023-03-03T04:21:13;95003.44;;;5.57;86.98
5380;BME280;2713;42.680;23.310;2023-03-03T04:23:42;94999.47;;;5.45;87.09
5380;BME280;2713;42.680;23.310;2023-03-03T04:26:09;95005.44;;;5.45;87.02
5380;BME280;2713;42.680;23.310;2023-03-03T04:28:36;95005.50;;;5.53;87.77
5380;BME280;2713;42.680;23.310;2023-03-03T04:31:04;95007.06;;;5.46;87.13
5380;BME280;2713;42.680;23.310;2023-03-03T04:33:32;95001.72;;;5.66;86.75
5380;BME280;2713;42.680;23.310;2023-03-03T04:36:00;95005.91;;;5.41;87.57
5380;BME280;2713;42.680;23.310;2023-03-03T04:38:27;95001.91;;;5.46;87.18
5380;BME280;2713;42.680;23.310;2023-03-03T04:40:56;95005.81;;;5.33;88.72
5380;BME280;2713;42.680;23.310;2023-03-03T04:43:25;95002.66;;;5.21;88.99
5380;BME280;2713;42.680;23.310;2023-03-03T04:45:53;95001.84;;;5.38;88.85
5380;BME280;2713;42.680;23.310;2023-03-03T04:48:20;95002.69;;;5.65;88.10
5380;BME280;2713;42.680;23.310;2023-03-03T04:50:47;94997.78;;;5.53;88.04
5380;BME280;2713;42.680;23.310;2023-03-03T04:53:14;94995.22;;;5.36;88.77
5380;BME280;2713;42.680;23.310;2023-03-03T04:55:42;95009.25;;;5.41;88.90
5380;BME280;2713;42.680;23.310;2023-03-03T04:58:10;95002.72;;;5.47;88.60
5380;BME280;2713;42.680;23.310;2023-03-03T05:00:38;95007.28;;;5.53;87.97
5380;BME280;2713;42.680;23.310;2023-03-03T05:03:06;95016.47;;;5.55;87.59
5380;BME280;2713;42.680;23.310;2023-03-03T05:05:34;95012.94;;;5.56;87.72
5380;BME280;2713;42.680;23.310;2023-03-03T05:08:00;95017.28;;;5.56;88.35
5380;BME280;2713;42.680;23.310;2023-03-03T05:10:27;95016.00;;;5.78;88.04
5380;BME280;2713;42.680;23.310;2023-03-03T05:12:54;95013.66;;;5.67;87.88
5380;BME280;2713;42.680;23.310;2023-03-03T05:15:22;95015.63;;;5.90;87.08
5380;BME280;2713;42.680;23.310;2023-03-03T05:17:49;95016.50;;;5.99;87.37
5380;BME280;2713;42.680;23.310;2023-03-03T05:20:18;95004.59;;;6.06;86.24
5380;BME280;2713;42.680;23.310;2023-03-03T05:22:44;95015.44;;;6.09;85.95
5380;BME280;2713;42.680;23.310;2023-03-03T05:25:11;95021.84;;;6.05;86.10
5380;BME280;2713;42.680;23.310;2023-03-03T05:27:38;95026.25;;;5.87;86.80
5380;BME280;2713;42.680;23.310;2023-03-03T05:30:06;95019.22;;;5.80;88.25
5380;BME280;2713;42.680;23.310;2023-03-03T05:32:35;95018.38;;;5.71;87.87
5380;BME280;2713;42.680;23.310;2023-03-03T05:35:02;95029.97;;;5.93;87.19
5380;BME280;2713;42.680;23.310;2023-03-03T05:37:29;95024.44;;;6.39;87.35
5380;BME280;2713;42.680;23.310;2023-03-03T05:39:55;95024.56;;;6.30;85.43
5380;BME280;2713;42.680;23.310;2023-03-03T05:42:22;95025.75;;;6.43;85.48
5380;BME280;2713;42.680;23.310;2023-03-03T05:44:49;95023.38;;;6.24;85.57
5380;BME280;2713;42.680;23.310;2023-03-03T05:47:16;95030.28;;;5.90;86.10
5380;BME280;2713;42.680;23.310;2023-03-03T05:49:44;95025.94;;;6.16;86.67
5380;BME280;2713;42.680;23.310;2023-03-03T05:52:11;95030.66;;;5.95;86.54
5380;BME280;2713;42.680;23.310;2023-03-03T05:54:38;95032.38;;;6.20;86.86
5380;BME280;2713;42.680;23.310;2023-03-03T05:57:05;95029.81;;;6.20;86.55
5380;BME280;2713;42.680;23.310;2023-03-03T05:59:32;95033.13;;;6.04;86.68
5380;BME280;2713;42.680;23.310;2023-03-03T06:01:59;95028.41;;;5.56;87.63
5380;BME280;2713;42.680;23.310;2023-03-03T06:04:26;95029.34;;;5.55;88.06
5380;BME280;2713;42.680;23.310;2023-03-03T06:06:55;95028.72;;;5.53;87.75
5380;BME280;2713;42.680;23.310;2023-03-03T06:09:21;95032.63;;;5.40;87.87
5380;BME280;2713;42.680;23.310;2023-03-03T06:11:48;95031.81;;;5.39;88.82
5380;BME280;2713;42.680;23.310;2023-03-03T06:14:17;95026.34;;;5.60;87.71
5380;BME280;2713;42.680;23.310;2023-03-03T06:16:45;95038.28;;;5.43;87.83
5380;BME280;2713;42.680;23.310;2023-03-03T06:19:12;95038.28;;;5.43;87.93
5380;BME280;2713;42.680;23.310;2023-03-03T06:21:38;95030.59;;;5.51;88.06
5380;BME280;2713;42.680;23.310;2023-03-03T06:24:07;95042.28;;;5.99;87.37
5380;BME280;2713;42.680;23.310;2023-03-03T06:26:34;95049.09;;;6.08;86.39
5380;BME280;2713;42.680;23.310;2023-03-03T06:29:00;95050.59;;;5.93;86.53
5380;BME280;2713;42.680;23.310;2023-03-03T06:31:27;95048.75;;;6.03;85.78
5380;BME280;2713;42.680;23.310;2023-03-03T06:33:54;95045.63;;;5.91;87.03
5380;BME280;2713;42.680;23.310;2023-03-03T06:36:21;95040.84;;;5.79;86.59
5380;BME280;2713;42.680;23.310;2023-03-03T06:38:48;95042.94;;;5.83;86.94
5380;BME280;2713;42.680;23.310;2023-03-03T06:41:16;95041.19;;;5.84;87.38
5380;BME280;2713;42.680;23.310;2023-03-03T06:43:43;95049.44;;;6.13;86.24
5380;BME280;2713;42.680;23.310;2023-03-03T06:46:09;95047.47;;;6.07;85.78
5380;BME280;2713;42.680;23.310;2023-03-03T06:48:36;95048.41;;;5.98;85.87
5380;BME280;2713;42.680;23.310;2023-03-03T06:51:22;95046.47;;;6.00;85.96
5380;BME280;2713;42.680;23.310;2023-03-03T06:53:52;95047.91;;;5.94;86.71
5380;BME280;2713;42.680;23.310;2023-03-03T06:56:22;95052.94;;;6.04;86.83
5380;BME280;2713;42.680;23.310;2023-03-03T06:58:52;95052.78;;;6.31;85.65
5380;BME280;2713;42.680;23.310;2023-03-03T07:01:20;95049.06;;;6.59;86.24
5380;BME280;2713;42.680;23.310;2023-03-03T07:03:46;95050.78;;;6.85;85.03
5380;BME280;2713;42.680;23.310;2023-03-03T07:06:20;95047.19;;;6.86;84.23
5380;BME280;2713;42.680;23.310;2023-03-03T07:08:49;95050.81;;;7.01;82.99
5380;BME280;2713;42.680;23.310;2023-03-03T07:11:17;95051.13;;;7.06;82.80
5380;BME280;2713;42.680;23.310;2023-03-03T07:13:49;95048.94;;;7.19;82.34
5380;BME280;2713;42.680;23.310;2023-03-03T07:16:17;95051.34;;;7.29;82.03
5380;BME280;2713;42.680;23.310;2023-03-03T07:18:48;95047.06;;;6.95;81.99
5380;BME280;2713;42.680;23.310;2023-03-03T07:21:18;95044.25;;;6.73;82.10
5380;BME280;2713;42.680;23.310;2023-03-03T07:23:47;95060.28;;;6.84;82.54
5380;BME280;2713;42.680;23.310;2023-03-03T07:26:17;95055.25;;;6.41;83.24
5380;BME280;2713;42.680;23.310;2023-03-03T07:28:53;95044.66;;;6.52;83.06
5380;BME280;2713;42.680;23.310;2023-03-03T07:31:30;95059.50;;;6.50;82.53
5380;BME280;2713;42.680;23.310;2023-03-03T07:33:59;95047.31;;;6.34;83.01
5380;BME280;2713;42.680;23.310;2023-03-03T07:36:28;95044.03;;;6.24;83.52
5380;BME280;2713;42.680;23.310;2023-03-03T07:38:58;95042.53;;;6.47;84.06
5380;BME280;2713;42.680;23.310;2023-03-03T07:41:26;95051.97;;;6.64;82.44
5380;BME280;2713;42.680;23.310;2023-03-03T07:43:59;95043.03;;;6.93;82.30
5380;BME280;2713;42.680;23.310;2023-03-03T07:46:35;95048.53;;;6.98;82.18
5380;BME280;2713;42.680;23.310;2023-03-03T07:49:15;95045.34;;;7.12;82.24
5380;BME280;2713;42.680;23.310;2023-03-03T07:51:46;95040.84;;;7.22;82.29
5380;BME280;2713;42.680;23.310;2023-03-03T07:54:27;95047.59;;;7.07;81.70
5380;BME280;2713;42.680;23.310;2023-03-03T07:56:57;95041.47;;;7.16;80.11
5380;BME280;2713;42.680;23.310;2023-03-03T07:59:27;95036.47;;;7.31;84.02
5380;BME280;2713;42.680;23.310;2023-03-03T08:01:56;95040.53;;;7.25;80.87
5380;BME280;2713;42.680;23.310;2023-03-03T08:04:28;95033.91;;;8.11;86.79
5380;BME280;2713;42.680;23.310;2023-03-03T08:07:01;95043.91;;;7.98;79.66
5380;BME280;2713;42.680;23.310;2023-03-03T08:09:42;95037.97;;;7.65;78.67
5380;BME280;2713;42.680;23.310;2023-03-03T08:15:21;95040.38;;;7.51;79.35
5380;BME280;2713;42.680;23.310;2023-03-03T08:17:50;95021.16;;;7.70;79.55
5380;BME280;2713;42.680;23.310;2023-03-03T08:20:41;95034.91;;;7.62;78.84
5380;BME280;2713;42.680;23.310;2023-03-03T08:23:08;95032.94;;;7.64;78.96
5380;BME280;2713;42.680;23.310;2023-03-03T08:25:35;95036.47;;;7.23;79.60
5380;BME280;2713;42.680;23.310;2023-03-03T08:28:02;95039.84;;;7.07;80.31
5380;BME280;2713;42.680;23.310;2023-03-03T08:30:30;95018.47;;;6.81;81.19
5380;BME280;2713;42.680;23.310;2023-03-03T08:32:57;95028.97;;;6.95;81.54
5380;BME280;2713;42.680;23.310;2023-03-03T08:35:25;95020.28;;;7.12;81.04
5380;BME280;2713;42.680;23.310;2023-03-03T08:37:51;95024.97;;;7.09;81.63
5380;BME280;2713;42.680;23.310;2023-03-03T08:40:18;95025.28;;;6.98;82.47
5380;BME280;2713;42.680;23.310;2023-03-03T08:42:45;95024.63;;;6.96;82.05
5380;BME280;2713;42.680;23.310;2023-03-03T08:45:12;95032.91;;;7.07;82.92
5380;BME280;2713;42.680;23.310;2023-03-03T08:47:40;95026.75;;;7.17;82.43
5380;BME280;2713;42.680;23.310;2023-03-03T08:50:08;95028.19;;;6.95;82.40
5380;BME280;2713;42.680;23.310;2023-03-03T08:52:35;95041.34;;;6.68;82.83
5380;BME280;2713;42.680;23.310;2023-03-03T08:55:02;95019.91;;;6.83;82.16
5380;BME280;2713;42.680;23.310;2023-03-03T08:57:29;95016.44;;;7.08;82.10
5380;BME280;2713;42.680;23.310;2023-03-03T08:59:56;95022.22;;;7.02;81.17
5380;BME280;2713;42.680;23.310;2023-03-03T09:02:23;95019.47;;;6.88;82.75
5380;BME280;2713;42.680;23.310;2023-03-03T09:04:52;95022.16;;;6.78;82.66
5380;BME280;2713;42.680;23.310;2023-03-03T09:07:18;95029.22;;;7.18;82.94
5380;BME280;2713;42.680;23.310;2023-03-03T09:09:45;95028.38;;;7.09;82.05
5380;BME280;2713;42.680;23.310;2023-03-03T09:12:15;95027.25;;;7.20;82.28
5380;BME280;2713;42.680;23.310;2023-03-03T09:14:43;95019.34;;;7.22;81.32
5380;BME280;2713;42.680;23.310;2023-03-03T09:17:32;95017.28;;;7.65;81.33
5380;BME280;2713;42.680;23.310;2023-03-03T09:20:16;95022.13;;;7.69;79.99
5380;BME280;2713;42.680;23.310;2023-03-03T09:22:47;95023.91;;;7.76;79.82
5380;BME280;2713;42.680;23.310;2023-03-03T09:25:20;95014.84;;;7.72;80.26
5380;BME280;2713;42.680;23.310;2023-03-03T09:27:47;95021.16;;;7.61;80.35
5380;BME280;2713;42.680;23.310;2023-03-03T09:30:33;95015.00;;;7.54;80.43
5380;BME280;2713;42.680;23.310;2023-03-03T09:33:01;95021.78;;;7.31;80.58
5380;BME280;2713;42.680;23.310;2023-03-03T09:35:44;95020.31;;;7.37;80.38
5380;BME280;2713;42.680;23.310;2023-03-03T09:38:26;95021.94;;;7.54;80.36
5380;BME280;2713;42.680;23.310;2023-03-03T09:41:28;95024.72;;;7.77;79.18
5380;BME280;2713;42.680;23.310;2023-03-03T09:44:19;95025.66;;;7.92;78.36
5380;BME280;2713;42.680;23.310;2023-03-03T09:46:58;95025.03;;;7.65;79.38
5380;BME280;2713;42.680;23.310;2023-03-03T09:49:31;95028.75;;;7.71;78.25
5380;BME280;2713;42.680;23.310;2023-03-03T09:52:21;95026.00;;;7.81;77.45
5380;BME280;2713;42.680;23.310;2023-03-03T09:55:10;95034.72;;;7.80;77.58
5380;BME280;2713;42.680;23.310;2023-03-03T09:57:54;95024.50;;;8.02;76.97
5380;BME280;2713;42.680;23.310;2023-03-03T10:00:34;95022.06;;;8.25;76.85
5380;BME280;2713;42.680;23.310;2023-03-03T10:03:36;95020.75;;;8.37;75.91
5380;BME280;2713;42.680;23.310;2023-03-03T10:06:10;95021.09;;;8.18;76.82
5380;BME280;2713;42.680;23.310;2023-03-03T10:08:50;95018.16;;;8.21;75.51
5380;BME280;2713;42.680;23.310;2023-03-03T10:11:25;95016.84;;;8.33;75.53
5380;BME280;2713;42.680;23.310;2023-03-03T10:14:06;95018.63;;;8.41;75.04
5380;BME280;2713;42.680;23.310;2023-03-03T10:55:35;94993.31;;;10.47;71.92
5380;BME280;2713;42.680;23.310;2023-03-03T11:01:07;94988.91;;;9.81;72.86
5380;BME280;2713;42.680;23.310;2023-03-03T11:04:02;94978.84;;;9.63;72.62
5380;BME280;2713;42.680;23.310;2023-03-03T11:06:38;94985.16;;;9.46;73.25
5380;BME280;2713;42.680;23.310;2023-03-03T11:09:14;94986.00;;;9.39;73.31
5380;BME280;2713;42.680;23.310;2023-03-03T11:11:48;94985.06;;;9.17;73.88
5380;BME280;2713;42.680;23.310;2023-03-03T11:14:25;94982.38;;;9.02;74.46
5380;BME280;2713;42.680;23.310;2023-03-03T11:16:59;94974.56;;;9.10;74.18
5380;BME280;2713;42.680;23.310;2023-03-03T11:19:48;94960.78;;;9.10;74.22
5380;BME280;2713;42.680;23.310;2023-03-03T11:22:29;94962.06;;;9.14;74.78
5380;BME280;2713;42.680;23.310;2023-03-03T11:25:05;94941.59;;;9.19;75.09
5380;BME280;2713;42.680;23.310;2023-03-03T11:27:54;94954.84;;;9.24;74.93
5380;BME280;2713;42.680;23.310;2023-03-03T11:30:31;94963.59;;;9.23;75.30
5380;BME280;2713;42.680;23.310;2023-03-03T11:33:02;94957.03;;;9.12;75.39
5380;BME280;2713;42.680;23.310;2023-03-03T11:35:39;94966.72;;;9.18;75.56
5380;BME280;2713;42.680;23.310;2023-03-03T11:38:35;94959.59;;;9.21;74.79
5380;BME280;2713;42.680;23.310;2023-03-03T11:41:13;94960.25;;;8.92;76.03
5380;BME280;2713;42.680;23.310;2023-03-03T11:43:45;94958.13;;;8.95;76.27
5380;BME280;2713;42.680;23.310;2023-03-03T11:46:17;94960.03;;;9.01;76.63
5380;BME280;2713;42.680;23.310;2023-03-03T11:48:50;94952.09;;;9.03;76.54
5380;BME280;2713;42.680;23.310;2023-03-03T11:51:22;94950.81;;;8.99;76.31
5380;BME280;2713;42.680;23.310;2023-03-03T11:53:57;94937.69;;;9.00;78.08
5380;BME280;2713;42.680;23.310;2023-03-03T11:56:27;94944.22;;;9.11;77.21
5380;BME280;2713;42.680;23.310;2023-03-03T11:59:06;94941.81;;;9.09;75.67
5380;BME280;2713;42.680;23.310;2023-03-03T12:01:42;94936.91;;;9.14;75.54
5380;BME280;2713;42.680;23.310;2023-03-03T12:04:14;94942.28;;;9.13;74.96
5380;BME280;2713;42.680;23.310;2023-03-03T12:06:56;94945.50;;;9.15;75.04
5380;BME280;2713;42.680;23.310;2023-03-03T12:09:37;94940.09;;;9.02;76.75
5380;BME280;2713;42.680;23.310;2023-03-03T12:12:07;94949.72;;;8.93;77.06
5380;BME280;2713;42.680;23.310;2023-03-03T12:14:59;94948.53;;;9.04;77.79
5380;BME280;2713;42.680;23.310;2023-03-03T12:17:49;94939.84;;;9.11;78.30
5380;BME280;2713;42.680;23.310;2023-03-03T12:20:24;94941.19;;;8.85;79.32
5380;BME280;2713;42.680;23.310;2023-03-03T12:23:11;94942.06;;;9.00;77.38
5380;BME280;2713;42.680;23.310;2023-03-03T12:25:43;94936.81;;;9.08;76.76
5380;BME280;2713;42.680;23.310;2023-03-03T12:28:16;94940.56;;;9.05;77.31
5380;BME280;2713;42.680;23.310;2023-03-03T12:31:06;94939.13;;;9.03;76.88
5380;BME280;2713;42.680;23.310;2023-03-03T12:33:47;94938.63;;;9.07;77.50
5380;BME280;2713;42.680;23.310;2023-03-03T12:36:24;94948.63;;;9.10;76.63
5380;BME280;2713;42.680;23.310;2023-03-03T12:38:59;94952.66;;;9.13;77.87
5380;BME280;2713;42.680;23.310;2023-03-03T12:41:32;94952.47;;;8.92;78.40
5380;BME280;2713;42.680;23.310;2023-03-03T12:44:07;94941.91;;;8.71;79.46
5380;BME280;2713;42.680;23.310;2023-03-03T12:46:44;94946.75;;;8.74;80.07
5380;BME280;2713;42.680;23.310;2023-03-03T12:49:12;94948.03;;;8.78;80.30
5380;BME280;2713;42.680;23.310;2023-03-03T12:51:49;94942.97;;;8.53;79.77
5380;BME280;2713;42.680;23.310;2023-03-03T12:54:34;94930.09;;;8.37;80.67
5380;BME280;2713;42.680;23.310;2023-03-03T12:57:13;94948.47;;;8.58;81.00
5380;BME280;2713;42.680;23.310;2023-03-03T12:59:49;94940.84;;;8.57;80.84
5380;BME280;2713;42.680;23.310;2023-03-03T13:02:37;94942.69;;;8.48;81.43
5380;BME280;2713;42.680;23.310;2023-03-03T13:05:15;94935.19;;;8.53;81.47
5380;BME280;2713;42.680;23.310;2023-03-03T13:07:53;94936.72;;;8.71;81.56
5380;BME280;2713;42.680;23.310;2023-03-03T13:10:26;94937.16;;;8.82;81.35
5380;BME280;2713;42.680;23.310;2023-03-03T13:12:59;94936.09;;;8.91;81.99
5380;BME280;2713;42.680;23.310;2023-03-03T13:15:30;94935.88;;;9.01;81.56
5380;BME280;2713;42.680;23.310;2023-03-03T13:20:50;94929.72;;;9.02;80.35
5380;BME280;2713;42.680;23.310;2023-03-03T13:23:30;94928.16;;;9.15;80.08
5380;BME280;2713;42.680;23.310;2023-03-03T13:26:07;94923.75;;;9.24;79.63
5380;BME280;2713;42.680;23.310;2023-03-03T13:28:40;94927.88;;;9.33;79.64
5380;BME280;2713;42.680;23.310;2023-03-03T13:31:11;94931.47;;;9.47;78.66
5380;BME280;2713;42.680;23.310;2023-03-03T13:33:45;94936.31;;;9.50;78.32
5380;BME280;2713;42.680;23.310;2023-03-03T13:36:16;94932.91;;;9.49;76.76
5380;BME280;2713;42.680;23.310;2023-03-03T13:38:47;94942.75;;;9.16;78.41
5380;BME280;2713;42.680;23.310;2023-03-03T13:41:21;94926.03;;;8.96;78.36
5380;BME280;2713;42.680;23.310;2023-03-03T13:43:54;94927.19;;;8.94;79.53
5380;BME280;2713;42.680;23.310;2023-03-03T13:46:32;94933.16;;;8.94;78.83
5380;BME280;2713;42.680;23.310;2023-03-03T13:49:23;94929.44;;;8.97;79.41
5380;BME280;2713;42.680;23.310;2023-03-03T13:52:00;94922.34;;;8.91;81.20
5380;BME280;2713;42.680;23.310;2023-03-03T13:54:50;94921.97;;;8.71;81.22
5380;BME280;2713;42.680;23.310;2023-03-03T13:57:55;94918.59;;;8.71;81.84
5380;BME280;2713;42.680;23.310;2023-03-03T14:00:32;94927.25;;;8.86;81.36
5380;BME280;2713;42.680;23.310;2023-03-03T14:06:22;94925.19;;;9.04;80.32
5380;BME280;2713;42.680;23.310;2023-03-03T14:08:59;94923.34;;;8.90;80.82
5380;BME280;2713;42.680;23.310;2023-03-03T14:11:34;94926.84;;;8.97;80.53
5380;BME280;2713;42.680;23.310;2023-03-03T14:14:10;94911.75;;;8.78;80.84
5380;BME280;2713;42.680;23.310;2023-03-03T14:16:49;94924.31;;;8.89;81.11
5380;BME280;2713;42.680;23.310;2023-03-03T14:19:21;94913.81;;;9.05;80.22
5380;BME280;2713;42.680;23.310;2023-03-03T14:22:03;94913.53;;;9.00;79.74
5380;BME280;2713;42.680;23.310;2023-03-03T14:24:31;94907.94;;;8.88;80.43
5380;BME280;2713;42.680;23.310;2023-03-03T14:27:23;94914.34;;;8.78;81.78
5380;BME280;2713;42.680;23.310;2023-03-03T14:29:50;94910.31;;;8.98;81.63
5380;BME280;2713;42.680;23.310;2023-03-03T14:32:21;94911.34;;;9.11;80.33
5380;BME280;2713;42.680;23.310;2023-03-03T14:34:56;94914.03;;;9.18;80.41
5380;BME280;2713;42.680;23.310;2023-03-03T14:37:26;94917.50;;;9.33;79.21
5380;BME280;2713;42.680;23.310;2023-03-03T14:40:06;94908.78;;;9.26;78.97
5380;BME280;2713;42.680;23.310;2023-03-03T14:42:44;94900.91;;;9.20;78.86